.
WxDataArchive / Data Records for 2015-09-10
2015-09-09 September 2015 2015-09-11

Data Records for Thursday, 10 September 2015

Time	Temp	Chill	HIndex	Humid	Dewpt	 Wind 	HiWind	WindDir	Rain 	Barom
-----	----	-----	------	-----	-----	------	------	-------	-----	-----
00:00	65.2	65.2	65.2	84	60.2	0	0	---	0.00	29.926 
00:05	65.0	65.0	65.0	84	60.0	0	0	---	0.00	29.926 
00:10	65.0	65.0	65.0	84	60.0	0	0	---	0.00	29.926 
00:15	64.8	64.8	64.8	84	59.8	0	0	---	0.00	29.926 
00:20	64.7	64.7	64.7	84	59.7	0	0	---	0.00	29.926 
00:25	64.5	64.5	64.5	84	59.6	0	0	---	0.00	29.926 
00:30	64.3	64.3	64.3	84	59.4	0	0	---	0.00	29.927 
00:35	64.2	64.2	64.2	84	59.3	0	0	---	0.00	29.927 
00:40	64.0	64.0	64.0	84	59.1	0	0	---	0.00	29.927 
00:45	63.9	63.9	63.9	84	59.0	0	0	---	0.00	29.930 
00:50	63.7	63.7	63.7	84	58.8	0	0	---	0.00	29.930 
00:55	63.5	63.5	63.5	85	58.9	0	0	---	0.00	29.930 
01:00	63.5	63.5	63.5	85	58.9	0	0	---	0.00	29.929 
01:05	63.4	63.4	63.4	85	58.8	0	0	---	0.00	29.929 
01:10	63.4	63.4	63.4	86	59.1	0	0	---	0.00	29.929 
01:15	63.5	63.5	63.5	86	59.2	0	0	---	0.00	29.930 
01:20	63.7	63.7	63.7	86	59.4	0	1	90	0.00	29.930 
01:25	63.7	63.7	63.7	86	59.4	0	0	---	0.00	29.930 
01:30	63.9	63.9	63.9	86	59.6	0	0	---	0.00	29.926 
01:35	63.7	63.7	63.7	86	59.4	0	0	---	0.00	29.926 
01:40	63.7	63.7	63.7	86	59.4	0	0	---	0.00	29.926 
01:45	63.5	63.5	63.5	85	58.9	0	0	---	0.00	29.926 
01:50	63.5	63.5	63.5	85	58.9	0	0	---	0.00	29.926 
01:55	63.4	63.4	63.4	85	58.8	0	1	90	0.00	29.926 
02:00	63.2	63.2	63.2	85	58.6	0	1	90	0.00	29.917 
02:05	63.2	63.2	63.2	85	58.6	0	1	90	0.00	29.917 
02:10	63.1	63.1	63.1	85	58.5	0	1	90	0.00	29.917 
02:15	63.1	63.1	63.1	85	58.5	0	0	---	0.00	29.925 
02:20	62.9	62.9	62.9	85	58.3	0	1	90	0.00	29.925 
02:25	62.7	62.7	62.7	85	58.1	0	0	---	0.00	29.925 
02:30	62.6	62.6	62.6	85	58.0	0	0	---	0.00	29.927 
02:35	62.6	62.6	62.6	85	58.0	0	0	---	0.00	29.927 
02:40	62.4	62.4	62.4	85	57.8	0	0	---	0.00	29.927 
02:45	62.3	62.3	62.3	85	57.7	0	0	---	0.00	29.922 
02:50	62.1	62.1	62.1	85	57.5	0	0	---	0.00	29.922 
02:55	62.0	62.0	62.0	85	57.4	0	0	---	0.00	29.922 
03:00	61.8	61.8	61.8	85	57.2	0	0	---	0.00	29.922 
03:05	61.6	61.6	61.6	85	57.0	0	0	---	0.00	29.922 
03:10	61.5	61.5	61.5	86	57.3	0	0	---	0.00	29.922 
03:15	61.3	61.3	61.3	86	57.1	0	0	---	0.00	29.926 
03:20	61.2	61.2	61.2	86	57.0	0	0	---	0.00	29.926 
03:25	61.2	61.2	61.2	86	57.0	0	0	---	0.00	29.926 
03:30	61.0	61.0	61.0	86	56.8	0	0	---	0.00	29.927 
03:35	60.9	60.9	60.9	86	56.7	0	0	---	0.00	29.927 
03:40	60.7	60.7	60.7	87	56.8	0	0	---	0.00	29.927 
03:45	60.5	60.5	60.5	87	56.6	0	0	---	0.00	29.922 
03:50	60.5	60.5	60.5	87	56.6	0	0	---	0.00	29.922 
03:55	60.5	60.5	60.5	87	56.6	0	0	---	0.00	29.922 
04:00	60.5	60.5	60.5	87	56.6	0	1	90	0.00	29.914 
04:05	60.5	60.5	60.5	87	56.6	0	0	---	0.00	29.914 
04:10	60.5	60.5	60.5	87	56.6	0	0	---	0.00	29.914 
04:15	60.5	60.5	60.5	87	56.6	0	0	---	0.00	29.911 
04:20	60.5	60.5	60.5	87	56.6	0	0	---	0.00	29.911 
04:25	60.5	60.5	60.5	87	56.6	0	0	---	0.00	29.911 
04:30	60.4	60.4	60.4	88	56.8	0	0	---	0.00	29.912 
04:35	60.4	60.4	60.4	88	56.8	0	1	90	0.00	29.912 
04:40	60.2	60.2	60.2	88	56.6	0	1	90	0.00	29.912 
04:45	60.1	60.1	60.1	88	56.5	0	0	---	0.00	29.910 
04:50	60.1	60.1	60.1	88	56.5	0	0	---	0.00	29.910 
04:55	59.9	59.9	59.9	88	56.3	0	0	---	0.00	29.910 
05:00	59.9	59.9	59.9	88	56.3	0	0	---	0.00	29.910 
05:05	59.8	59.8	59.8	88	56.2	0	0	---	0.00	29.910 
05:10	59.8	59.8	59.8	89	56.5	0	0	---	0.00	29.910 
05:15	59.6	59.6	59.6	89	56.4	0	0	---	0.00	29.907 
05:20	59.5	59.5	59.5	89	56.3	0	0	---	0.00	29.907 
05:25	59.5	59.5	59.5	90	56.6	0	0	---	0.00	29.907 
05:30	59.5	59.5	59.5	90	56.6	0	1	90	0.00	29.909 
05:35	59.5	59.5	59.5	90	56.6	0	0	---	0.00	29.909 
05:40	59.5	59.5	59.5	90	56.6	0	0	---	0.00	29.909 
05:45	59.5	59.5	59.5	90	56.6	0	1	90	0.00	29.912 
05:50	59.5	59.5	59.5	90	56.6	0	0	---	0.00	29.912 
05:55	59.3	59.3	59.3	90	56.4	0	0	---	0.00	29.912 
06:00	59.3	59.3	59.3	90	56.4	0	1	90	0.00	29.913 
06:05	59.3	59.3	59.3	90	56.4	0	0	---	0.00	29.913 
06:10	59.2	59.2	59.2	90	56.3	0	0	---	0.00	29.913 
06:15	59.0	59.0	59.0	90	56.1	0	0	---	0.00	29.919 
06:20	58.9	58.9	58.9	90	56.0	0	0	---	0.00	29.919 
06:25	58.7	58.7	58.7	90	55.8	0	0	---	0.00	29.919 
06:30	58.7	58.7	58.7	90	55.8	0	0	---	0.00	29.919 
06:35	58.6	58.6	58.6	91	56.0	0	0	---	0.00	29.919 
06:40	58.4	58.4	58.4	91	55.8	0	0	---	0.00	29.919 
06:45	58.3	58.3	58.3	91	55.7	0	0	---	0.00	29.924 
06:50	58.3	58.3	58.3	91	55.7	0	0	---	0.00	29.924 
06:55	58.1	58.1	58.1	91	55.5	0	0	---	0.00	29.924 
07:00	58.0	58.0	58.0	91	55.4	0	0	---	0.00	29.927 
07:05	58.0	58.0	58.0	92	55.7	0	0	---	0.00	29.927 
07:10	58.0	58.0	58.0	92	55.7	0	0	---	0.00	29.927 
07:15	58.0	58.0	58.0	92	55.7	0	0	---	0.00	29.931 
07:20	58.1	58.1	58.1	92	55.8	0	0	---	0.00	29.931 
07:25	58.3	58.3	58.3	92	56.0	0	0	---	0.00	29.931 
07:30	58.4	58.4	58.4	92	56.1	0	0	---	0.00	29.932 
07:35	58.6	58.6	58.6	92	56.3	0	0	---	0.00	29.932 
07:40	58.6	58.6	58.6	92	56.3	0	0	---	0.00	29.932 
07:45	58.6	58.6	58.6	92	56.3	0	0	---	0.00	29.934 
07:50	58.7	58.7	58.7	92	56.4	0	0	---	0.00	29.934 
07:55	58.7	58.7	58.7	92	56.4	0	0	---	0.00	29.934 
08:00	58.7	58.7	58.7	92	56.4	0	0	---	0.00	29.937 
08:05	58.9	58.9	58.9	92	56.6	0	0	---	0.00	29.937 
08:10	59.0	59.0	59.0	92	56.7	0	1	90	0.00	29.937 
08:15	59.2	59.2	59.2	92	56.9	0	0	---	0.00	29.941 
08:20	59.5	59.5	59.5	91	56.9	0	1	90	0.00	29.941 
08:25	59.6	59.6	59.6	89	56.4	0	1	90	0.00	29.941 
08:30	59.9	59.9	59.9	87	56.0	0	2	90	0.00	29.937 
08:35	60.2	60.2	60.2	86	56.0	0	0	---	0.00	29.937 
08:40	60.5	60.5	60.5	84	55.6	0	2	90	0.00	29.937 
08:45	60.7	60.7	60.7	83	55.5	1	3	90	0.00	29.943 
08:50	61.0	61.0	61.0	82	55.5	0	1	90	0.00	29.943 
08:55	61.3	61.3	61.3	81	55.4	0	2	90	0.00	29.943 
09:00	61.6	61.6	61.6	80	55.4	0	2	90	0.00	29.945 
09:05	62.0	62.0	62.0	80	55.8	0	1	90	0.00	29.945 
09:10	62.3	62.3	62.3	80	56.0	0	1	90	0.00	29.945 
09:15	62.6	62.6	62.6	79	56.0	0	3	90	0.00	29.938 
09:20	63.1	63.1	63.1	77	55.8	1	3	90	0.00	29.938 
09:25	63.4	63.4	63.4	74	55.0	1	3	90	0.00	29.938 
09:30	63.9	63.9	63.9	75	55.8	0	1	90	0.00	29.937 
09:35	64.2	64.2	64.2	74	55.7	1	3	90	0.00	29.937 
09:40	64.5	64.5	64.5	73	55.6	0	3	90	0.00	29.937 
09:45	64.8	64.8	64.8	73	55.9	0	3	90	0.00	29.933 
09:50	65.2	65.2	65.2	72	55.9	1	3	90	0.00	29.933 
09:55	65.5	65.5	65.5	72	56.2	0	2	90	0.00	29.933 
10:00	65.8	65.8	65.8	71	56.1	1	3	90	0.00	29.932 
10:05	66.0	66.0	66.0	70	55.9	1	3	90	0.00	29.932 
10:10	66.3	66.3	66.3	69	55.8	1	4	90	0.00	29.932 
10:15	66.9	66.9	66.9	68	56.0	0	1	90	0.00	29.935 
10:20	67.9	67.9	67.9	64	55.3	1	3	90	0.00	29.935 
10:25	68.8	68.8	68.8	61	54.8	1	4	90	0.00	29.935 
10:30	69.6	69.6	69.6	58	54.2	0	4	90	0.00	29.929 
10:35	70.8	70.8	70.8	54	53.3	0	2	112	0.00	29.929 
10:40	71.6	71.6	71.6	52	53.0	0	2	112	0.00	29.929 
10:45	72.5	72.5	72.5	50	52.8	0	2	112	0.00	29.927 
10:50	73.2	73.2	73.2	48	52.3	0	2	112	0.00	29.927 
10:55	73.5	73.5	73.5	49	53.2	0	3	112	0.00	29.927 
11:00	73.9	73.9	73.9	44	50.6	1	4	112	0.00	29.921 
11:05	73.9	73.9	73.9	47	52.4	1	3	112	0.00	29.921 
11:10	74.0	74.0	74.0	46	51.9	1	3	112	0.00	29.921 
11:15	74.4	74.4	74.4	46	52.3	0	2	112	0.00	29.922 
11:20	74.9	74.9	74.9	46	52.7	0	1	112	0.00	29.922 
11:25	75.6	75.6	77.8	46	53.3	0	1	112	0.00	29.922 
11:30	76.1	76.1	78.0	44	52.6	0	2	112	0.00	29.918 
11:35	76.3	76.3	78.1	45	53.4	0	3	112	0.00	29.918 
11:40	76.5	76.5	78.3	48	55.3	0	1	112	0.00	29.918 
11:45	76.0	76.0	78.0	46	53.7	0	1	112	0.00	29.922 
11:50	76.0	76.0	78.0	45	53.1	0	1	112	0.00	29.922 
11:55	76.0	76.0	78.0	46	53.7	0	1	112	0.00	29.922 
12:00	76.3	76.3	78.2	48	55.1	0	0	---	0.00	29.916 
12:05	77.0	77.0	78.5	46	54.6	0	1	112	0.00	29.916 
12:10	77.2	77.2	78.5	44	53.6	0	3	112	0.00	29.916 
12:15	77.2	77.2	78.5	45	54.2	1	3	112	0.00	29.919 
12:20	77.0	77.0	78.5	47	55.2	0	2	112	0.00	29.919 
12:25	76.5	76.5	78.3	48	55.3	0	2	112	0.00	29.919 
12:30	76.1	76.1	78.1	49	55.5	0	3	112	0.00	29.911 
12:35	76.5	76.5	78.3	50	56.5	0	2	112	0.00	29.911 
12:40	77.4	77.4	78.7	47	55.6	0	2	112	0.00	29.911 
12:45	77.2	77.2	78.6	47	55.4	1	3	112	0.00	29.897 
12:50	76.8	76.8	78.5	49	56.2	0	3	112	0.00	29.897 
12:55	77.4	77.4	78.8	50	57.3	0	1	112	0.00	29.897 
13:00	78.1	78.1	79.2	47	56.2	0	2	112	0.00	29.891 
13:05	78.5	78.5	79.4	46	56.0	0	2	112	0.00	29.891 
13:10	78.3	78.3	79.2	46	55.8	1	4	112	0.00	29.891 
13:15	77.7	77.7	78.9	46	55.2	0	1	112	0.00	29.892 
13:20	77.6	77.6	78.8	47	55.8	0	3	112	0.00	29.892 
13:25	77.9	77.9	79.0	46	55.4	0	2	112	0.00	29.892 
13:30	78.5	78.5	79.2	43	54.1	0	2	112	0.00	29.888 
13:35	78.3	78.3	79.0	42	53.3	1	2	112	0.00	29.888 
13:40	77.7	77.7	78.7	43	53.4	1	3	112	0.00	29.888 
13:45	77.6	77.6	78.7	44	53.9	1	3	112	0.00	29.880 
13:50	77.6	77.6	78.7	44	53.9	0	2	112	0.00	29.880 
13:55	77.7	77.7	78.6	40	51.4	0	2	112	0.00	29.880 
14:00	77.7	77.7	78.7	42	52.8	1	3	112	0.00	29.876 
14:05	77.9	77.9	78.8	43	53.6	0	3	112	0.00	29.876 
14:10	78.3	78.3	78.9	41	52.6	0	2	112	0.00	29.876 
14:15	78.5	78.5	78.9	39	51.5	0	2	112	0.00	29.871 
14:20	78.8	78.8	79.1	39	51.7	1	3	112	0.00	29.871 
14:25	79.2	79.2	79.4	40	52.8	0	2	112	0.00	29.871 
14:30	79.0	79.0	79.1	37	50.5	1	3	112	0.00	29.867 
14:35	79.2	79.2	79.5	42	54.1	1	4	112	0.00	29.867 
14:40	79.4	79.4	79.8	43	54.9	0	1	112	0.00	29.867 
14:45	79.8	79.8	79.9	41	54.0	0	1	112	0.00	29.864 
14:50	79.9	79.9	79.9	40	53.4	0	3	112	0.00	29.864 
14:55	80.1	80.1	80.1	41	54.2	0	1	112	0.00	29.864 
15:00	80.1	80.1	80.2	42	54.9	0	3	112	0.00	29.859 
15:05	79.9	79.9	79.9	40	53.4	1	3	0	0.00	29.859 
15:10	80.1	80.1	80.3	43	55.6	0	3	90	0.00	29.859 
15:15	79.9	79.9	80.0	42	54.7	0	3	292	0.00	29.860 
15:20	79.4	79.4	79.8	44	55.6	0	2	292	0.00	29.860 
15:25	79.4	79.4	79.8	43	54.9	1	3	292	0.00	29.860 
15:30	79.2	79.2	79.8	46	56.6	1	3	292	0.00	29.856 
15:35	79.0	79.0	79.5	43	54.6	1	4	90	0.00	29.856 
15:40	79.2	79.2	79.7	44	55.4	1	3	90	0.00	29.856 
15:45	79.4	79.4	79.8	44	55.6	0	3	315	0.00	29.856 
15:50	79.4	79.4	79.8	43	54.9	0	2	338	0.00	29.856 
15:55	79.4	79.4	79.8	43	54.9	1	3	338	0.00	29.856 
16:00	79.4	79.4	79.5	40	52.9	2	3	338	0.00	29.855 
16:05	79.2	79.2	79.5	41	53.4	1	4	338	0.00	29.855 
16:10	79.2	79.2	79.7	44	55.4	0	3	315	0.00	29.855 
16:15	79.6	79.6	79.9	43	55.1	0	3	315	0.00	29.850 
16:20	79.4	79.4	79.8	43	54.9	2	4	338	0.00	29.850 
16:25	79.2	79.2	79.8	45	56.0	1	3	338	0.00	29.850 
16:30	79.0	79.0	79.6	45	55.8	0	3	338	0.00	29.848 
16:35	79.2	79.2	80.1	49	58.4	1	5	338	0.00	29.848 
16:40	79.2	79.2	79.9	47	57.2	0	2	338	0.00	29.848 
16:45	78.8	78.8	79.6	47	56.8	1	4	90	0.00	29.849 
16:50	78.6	78.6	79.5	47	56.7	0	3	90	0.00	29.849 
16:55	78.3	78.3	79.3	48	57.0	0	1	90	0.00	29.849 
17:00	78.1	78.1	79.2	48	56.8	1	3	90	0.00	29.851 
17:05	77.9	77.9	79.1	48	56.6	1	3	270	0.00	29.851 
17:10	77.7	77.7	79.0	50	57.6	0	1	292	0.00	29.851 
17:15	77.7	77.7	79.0	50	57.6	0	2	292	0.00	29.853 
17:20	77.7	77.7	79.1	51	58.1	1	3	292	0.00	29.853 
17:25	77.7	77.7	79.0	50	57.6	1	4	292	0.00	29.853 
17:30	77.6	77.6	79.0	50	57.5	1	4	292	0.00	29.851 
17:35	77.6	77.6	79.0	50	57.5	1	3	292	0.00	29.851 
17:40	77.7	77.7	79.0	49	57.0	1	3	292	0.00	29.851 
17:45	77.7	77.7	79.0	49	57.0	1	3	292	0.00	29.850 
17:50	77.6	77.6	78.9	48	56.3	0	2	292	0.00	29.850 
17:55	77.6	77.6	78.9	48	56.3	1	3	292	0.00	29.850 
18:00	77.4	77.4	78.8	48	56.1	0	1	292	0.00	29.842 
18:05	77.4	77.4	78.8	49	56.7	0	1	292	0.00	29.842 
18:10	77.4	77.4	78.8	50	57.3	0	2	292	0.00	29.842 
18:15	77.4	77.4	78.8	50	57.3	0	2	292	0.00	29.841 
18:20	77.4	77.4	78.8	50	57.3	0	2	292	0.00	29.841 
18:25	77.6	77.6	79.0	51	58.0	0	2	292	0.00	29.841 
18:30	77.4	77.4	78.9	51	57.8	0	2	292	0.00	29.845 
18:35	77.2	77.2	78.8	52	58.2	0	2	292	0.00	29.845 
18:40	77.0	77.0	78.7	53	58.5	0	1	292	0.00	29.845 
18:45	76.8	76.8	78.5	53	58.4	0	2	292	0.00	29.849 
18:50	76.8	76.8	78.5	53	58.4	1	3	292	0.00	29.849 
18:55	76.8	76.8	78.5	52	57.8	1	4	292	0.00	29.849 
19:00	76.8	76.8	78.5	53	58.4	0	2	292	0.00	29.849 
19:05	76.5	76.5	78.4	53	58.1	1	6	292	0.00	29.849 
19:10	76.3	76.3	78.2	51	56.8	1	4	338	0.00	29.849 
19:15	76.0	76.0	78.1	51	56.5	1	4	315	0.00	29.850 
19:20	75.6	75.6	77.9	52	56.7	0	2	315	0.00	29.850 
19:25	75.4	75.4	77.8	52	56.5	2	4	315	0.00	29.850 
19:30	75.1	75.1	77.6	53	56.8	2	4	315	0.00	29.848 
19:35	74.9	74.9	74.9	53	56.6	1	2	315	0.00	29.848 
19:40	74.6	74.6	74.6	54	56.8	0	1	315	0.00	29.848 
19:45	74.4	74.4	74.4	54	56.7	0	1	315	0.00	29.847 
19:50	74.2	74.2	74.2	55	57.0	0	0	---	0.00	29.847 
19:55	73.9	73.9	73.9	55	56.7	0	0	---	0.00	29.847 
20:00	73.5	73.5	73.5	56	56.8	0	0	---	0.00	29.842 
20:05	73.2	73.2	73.2	56	56.5	0	0	---	0.00	29.842 
20:10	73.0	73.0	73.0	57	56.9	0	0	---	0.00	29.842 
20:15	72.5	72.5	72.5	60	57.8	0	0	---	0.00	29.833 
20:20	72.1	72.1	72.1	61	57.9	0	0	---	0.00	29.833 
20:25	71.8	71.8	71.8	61	57.6	0	0	---	0.00	29.833 
20:30	71.5	71.5	71.5	61	57.3	0	0	---	0.00	29.828 
20:35	71.1	71.1	71.1	62	57.4	0	0	---	0.00	29.828 
20:40	70.8	70.8	70.8	62	57.1	0	0	---	0.00	29.828 
20:45	70.4	70.4	70.4	63	57.2	0	0	---	0.00	29.828 
20:50	70.1	70.1	70.1	65	57.8	0	0	---	0.00	29.828 
20:55	69.6	69.6	69.6	67	58.1	0	0	---	0.00	29.828 
21:00	69.3	69.3	69.3	67	57.9	0	0	---	0.00	29.827 
21:05	68.9	68.9	68.9	68	57.9	0	0	---	0.00	29.827 
21:10	68.6	68.6	68.6	69	58.0	0	0	---	0.00	29.827 
21:15	68.3	68.3	68.3	70	58.1	0	0	---	0.00	29.830 
21:20	68.1	68.1	68.1	72	58.7	0	0	---	0.00	29.830 
21:25	67.8	67.8	67.8	73	58.8	0	0	---	0.00	29.830 
21:30	67.6	67.6	67.6	73	58.6	0	0	---	0.00	29.838 
21:35	67.3	67.3	67.3	74	58.7	0	0	---	0.00	29.838 
21:40	66.9	66.9	66.9	74	58.3	0	0	---	0.00	29.838 
21:45	66.8	66.8	66.8	75	58.6	0	0	---	0.00	29.839 
21:50	66.6	66.6	66.6	75	58.4	0	0	---	0.00	29.839 
21:55	66.4	66.4	66.4	76	58.6	0	0	---	0.00	29.839 
22:00	66.3	66.3	66.3	77	58.9	0	0	---	0.00	29.843 
22:05	66.0	66.0	66.0	77	58.6	0	2	315	0.00	29.843 
22:10	66.1	66.1	66.1	78	59.0	0	2	315	0.00	29.843 
22:15	66.4	66.4	66.4	77	59.0	0	1	315	0.00	29.848 
22:20	66.6	66.6	66.6	76	58.8	0	1	315	0.00	29.848 
22:25	66.8	66.8	66.8	76	59.0	0	1	315	0.00	29.848 
22:30	66.9	66.9	66.9	76	59.1	0	1	315	0.00	29.852 
22:35	66.9	66.9	66.9	75	58.7	0	1	315	0.00	29.852 
22:40	66.9	66.9	66.9	75	58.7	0	1	315	0.00	29.852 
22:45	66.9	66.9	66.9	75	58.7	0	1	315	0.00	29.860 
22:50	66.8	66.8	66.8	75	58.6	0	0	---	0.00	29.860 
22:55	66.6	66.6	66.6	76	58.8	0	0	---	0.00	29.860 
23:00	66.4	66.4	66.4	76	58.6	0	0	---	0.00	29.861 
23:05	66.3	66.3	66.3	77	58.9	0	0	---	0.00	29.861 
23:10	66.1	66.1	66.1	77	58.7	0	0	---	0.00	29.861 
23:15	66.0	66.0	66.0	77	58.6	0	0	---	0.00	29.858 
23:20	65.8	65.8	65.8	78	58.7	0	1	315	0.00	29.858 
23:25	65.6	65.6	65.6	78	58.5	0	0	---	0.00	29.858 
23:30	65.3	65.3	65.3	79	58.6	0	0	---	0.00	29.858 
23:35	65.2	65.2	65.2	79	58.5	0	0	---	0.00	29.858 
23:40	65.0	65.0	65.0	80	58.7	0	0	---	0.00	29.858 
23:45	64.8	64.8	64.8	80	58.5	0	0	---	0.00	29.855 
23:50	64.7	64.7	64.7	81	58.7	0	0	---	0.00	29.855 
23:55	64.5	64.5	64.5	81	58.5	0	0	---	0.00	29.855 

CoCoRaHS
IN-AL-39
A2 Web Hosting
Creative Commons License
GoDaddy
search engine by freefind advanced

loaded 2018-11-17 22:37:12 • last modified 2010-11-18 10:43:29
Privacy PolicyDisclaimer
• wx.awcolley.com is powered by PmWiki v.2002016 •
• all content (unless otherwise noted) © 2018 A W Colley